world map with EGVP marked

EGVP - Airport

This information may not be accurate or current and is not valid for navigation or flight planning. No warranty of fitness for any purpose is made or implied.

flag of Englandflag of United Kingdom

Donate via PayPal

Additional information is available on the NEW Great Circle Mapper

Location
City:  Middle Wallop, Hampshire, England, United Kingdom
ICAO:EGVP

Details
Type:Airport (Aerodrome, Airfield)
Latitude:51°09'N (51.142)
Longitude:1°34'W (-1.571)
Runways:unknown number
Longest:2400 ft (732 m)

Time
Timezone:UTC+0 (DST+3)
Local Time:

Weather
METAR:EGVP  041350Z 24007KT 9999 SCT003 BKN017 10/10 Q1016 YLO2 BECMG FEW004 BKN007 GRN
TAF:EGVP  (expired)

Related Locations
Nearby:
Farthest:NZDC: 11921 mi / 19185 km
Dunedin [City Heliport], OTA, NZ

Find:

   beyond  
but within

Other Information
Maps:
Sources:

  


 


Great Circle Mapper   Great Circle Mapper
Great Circle Mapper FAQ   Great Circle Mapper FAQ
  Karl's Home Page
KLSē   KLSē Home
   GC on Facebook
Airlines of the World   Airlines of the World
Donate via PayPal


Copyright © 2004-2019, Karl L. Swartz. All rights reserved.
All trademarks mentioned herein belong to their respective owners.

Please see credits for attribution and copyright information.

Karl Swartz <karl@kls2.com>
  Powered by FreeBSD
Valid HTML 4.01!
Labeled with ICRA
hCard Microformat
Geo Microformat